< Typhoon 196209 1962 Season Typhoon 196211 >
Typhoon 196210 (OPAL)
General InformationTrack Information on Google Maps || Disaster Info.ResourceGoogle EarthGE AnimationAtom FeedGeoJSON
Detalied Best Track (Time Zone = UTC)
Year Month Day Hour Lat. Long. Pressure (hPa) Wind (kt) Class Image Chart
1962 7 30 06 8.5 151.0 1002 0 2 -- Chart
1962 7 30 12 8.8 150.4 1002 0 2 -- Chart
1962 7 30 18 9.0 149.6 1000 0 2 -- Chart
1962 7 31 00 9.4 149.0 1000 0 2 -- Chart
1962 7 31 06 10.0 147.5 1000 0 2 -- Chart
1962 7 31 12 11.0 146.0 1000 0 2 -- Chart
1962 7 31 18 11.0 144.3 1000 0 2 -- Chart
1962 8 1 00 12.0 142.7 1000 0 2 -- Chart
1962 8 1 06 11.3 142.0 1000 0 2 -- Chart
1962 8 1 12 11.1 141.0 1000 0 2 -- Chart
1962 8 1 18 11.1 140.0 1000 0 2 -- Chart
1962 8 2 00 11.2 139.3 995 0 2 -- Chart
1962 8 2 06 12.3 138.4 990 0 9 -- Chart
1962 8 2 12 13.4 137.2 990 0 9 -- Chart
1962 8 2 18 14.5 135.9 990 0 9 -- Chart
1962 8 3 00 15.4 134.2 985 0 9 -- Chart
1962 8 3 06 16.4 132.8 980 0 9 -- Chart
1962 8 3 12 17.3 131.6 975 0 9 -- Chart
1962 8 3 18 18.3 129.8 970 0 9 -- Chart
1962 8 4 00 18.9 128.9 965 0 9 -- Chart
1962 8 4 06 19.6 127.5 950 0 9 -- Chart
1962 8 4 12 20.2 126.2 935 0 9 -- Chart
1962 8 4 18 20.8 125.1 920 0 9 -- Chart
1962 8 5 00 21.5 124.0 910 0 9 -- Chart
1962 8 5 06 22.3 122.7 900 0 9 -- Chart
1962 8 5 12 23.6 122.3 910 0 9 -- Chart
1962 8 5 18 24.7 121.0 940 0 9 -- Chart
1962 8 6 00 25.9 120.2 960 0 9 -- Chart
1962 8 6 06 27.2 119.1 970 0 9 -- Chart
1962 8 6 12 28.6 118.6 990 0 9 -- Chart
1962 8 6 18 31.0 118.3 992 0 9 -- Chart
1962 8 7 00 32.8 118.0 992 0 9 -- Chart
1962 8 7 06 34.5 118.5 992 0 9 -- Chart
1962 8 7 12 35.7 119.9 990 0 9 -- Chart
1962 8 7 18 37.5 122.6 988 0 9 -- Chart
1962 8 8 00 38.7 124.6 988 0 9 -- Chart
1962 8 8 06 38.6 128.6 984 0 9 -- Chart
1962 8 8 12 39.3 130.2 984 0 9 -- Chart
1962 8 8 18 41.6 135.3 984 0 9 -- Chart
1962 8 9 00 42.6 137.4 984 0 9 -- Chart
1962 8 9 06 43.0 138.5 984 0 6 -- Chart
1962 8 9 12 43.5 139.6 982 0 6 -- Chart
1962 8 9 18 43.8 141.5 982 0 6 -- Chart
1962 8 10 00 44.9 145.0 984 0 6 -- Chart
1962 8 10 06 45.5 147.6 984 0 6 -- Chart
1962 8 10 12 46.0 149.6 986 0 6 -- Chart
1962 8 10 18 46.7 151.8 986 0 6 -- Chart
1962 8 11 00 47.7 154.2 988 0 6 -- Chart
1962 8 11 06 48.2 155.6 988 0 6 -- Chart
1962 8 11 12 48.7 157.0 994 0 6 -- Chart
1962 8 11 18 49.1 158.1 994 0 6 -- Chart
1962 8 12 00 50.0 160.8 998 0 6 -- Chart
1962 8 12 06 50.6 162.7 998 0 6 -- Chart
1962 8 12 12 51.4 164.6 1002 0 6 -- Chart
1962 8 12 18 52.0 166.5 1004 0 6 -- Chart
1962 8 13 00 52.7 168.5 1004 0 6 -- Chart
1962 8 13 06 53.4 170.7 1006 0 6 -- Chart
1962 8 13 12 54.0 172.8 1006 0 6 -- Chart
1962 8 13 18 54.6 174.8 1004 0 6 -- Chart
1962 8 14 00 55.2 176.9 1004 0 6 -- Chart
1962 8 14 06 55.7 179.0 1004 0 6 -- Chart
1962 8 14 12 56.4 181.1 1004 0 6 -- Chart
Japan Meteorological Agency Best Track Data | Correction Date : 1989-06-01
< Typhoon 196209 1962 Season Typhoon 196211 >

Help